Los Alamos, NM

10:12 AM MST on February 12, 2016 (GMT -0700)
Los Alamos

Weather History for KLAM - October, 2013

Change the Weather History Date:

Wednesday, October 23, 2013

  Actual Average Record
Temperature  
Mean Temperature 53 °F -  
Max Temperature 63 °F 56 °F 70 °F (2012)
Min Temperature 43 °F 34 °F 24 °F (1975)
Degree Days  
Heating Degree Days 12    
Growing Degree Days 3 (Base 50)    
Moisture  
Dew Point 22 °F    
Average Humidity 30    
Maximum Humidity 41    
Minimum Humidity 20    
Precipitation  
Precipitation 0.00 in - - ()
Sea Level Pressure  
Sea Level Pressure 30.28 in    
Wind  
Wind Speed 2 mph (SSE)    
Max Wind Speed 10 mph    
Max Gust Speed -    
Visibility 10 miles    
Events      
Averages and records for this station are not official NWS values.
T = Trace of Precipitation, MM = Missing Value Source: NWS Daily Summary

Daily Weather History Graph

Daily Weather History Graph

Search for Another Location

Airport or City:

Trip Planner

Search our weather history database for the weather conditions in past years. The results will help you decide how hot, cold, wet, or windy it might be!

Date:

Astronomy

Oct. 23, 2013 Rise Set
Actual Time 7:19 AM MDT 6:18 PM MDT
Civil Twilight 6:53 AM MDT 6:45 PM MDT
Nautical Twilight 6:23 AM MDT 7:14 PM MDT
Astronomical Twilight 5:53 AM MDT 7:44 PM MDT
Moon 9:57 PM MDT (10/23) 11:33 AM MDT (10/23)
Length of Visible Light 11h 51m
Length of Day
10h 59m
Waning Gibbous, 79% of the Moon is Illuminated
Oct 23
Waning Gibbous
Oct 26
Last Quarter
Nov 3
New
Nov 9
First Quarter
Nov 17
Full

Hourly Weather History & Observations

Time (MDT) Temp. Windchill Dew Point Humidity Pressure Visibility Wind Dir Wind Speed Gust Speed Precip Events Conditions
12:15 AM 50.9 °F - 19.8 °F 29% 30.30 in 10.0 mi NNW 3.5 mph - N/A   Clear
12:35 AM 49.8 °F - 19.8 °F 31% 30.30 in 10.0 mi Calm Calm - N/A   Clear
12:55 AM 50.2 °F - 19.8 °F 30% 30.30 in 10.0 mi Calm Calm - N/A   Clear
1:15 AM 50.2 °F - 19.4 °F 30% 30.30 in 10.0 mi Calm Calm - N/A   Clear
1:35 AM 50.9 °F - 19.2 °F 29% 30.30 in 10.0 mi Calm Calm - N/A   Clear
1:55 AM 50.4 °F - 19.2 °F 29% 30.30 in 10.0 mi Calm Calm - N/A   Clear
2:15 AM 50.0 °F - 19.0 °F 29% 30.29 in 10.0 mi Calm Calm - N/A   Clear
2:35 AM 47.3 °F - 20.1 °F 34% 30.30 in 10.0 mi NE 3.5 mph - N/A   Clear
2:55 AM 46.4 °F 45.2 °F 20.3 °F 36% 30.29 in 10.0 mi NNE 3.5 mph - N/A   Clear
3:15 AM 46.0 °F - 20.1 °F 36% 30.29 in 10.0 mi Calm Calm - N/A   Clear
3:35 AM 46.6 °F - 19.4 °F 34% 30.29 in 10.0 mi Calm Calm - N/A   Clear
3:55 AM 46.8 °F - 19.2 °F 33% 30.28 in 10.0 mi Calm Calm - N/A   Clear
4:15 AM 47.3 °F - 19.2 °F 33% 30.28 in 10.0 mi Calm Calm - N/A   Clear
4:35 AM 47.1 °F - 19.4 °F 33% 30.28 in 10.0 mi Calm Calm - N/A   Clear
4:55 AM 47.7 °F - 19.0 °F 32% 30.28 in 10.0 mi Calm Calm - N/A   Clear
5:15 AM 46.6 °F - 19.2 °F 34% 30.28 in 10.0 mi Calm Calm - N/A   Clear
5:35 AM 45.9 °F - 19.4 °F 35% 30.29 in 10.0 mi Calm Calm - N/A   Clear
5:55 AM 46.4 °F 45.2 °F 19.0 °F 34% 30.29 in 10.0 mi NNW 3.5 mph - N/A   Clear
6:15 AM 46.2 °F 45.0 °F 18.9 °F 34% 30.30 in 10.0 mi NNW 3.5 mph - N/A   Clear
6:35 AM 46.4 °F 45.2 °F 18.5 °F 33% 30.30 in 10.0 mi NW 3.5 mph - N/A   Clear
6:55 AM 45.1 °F - 19.0 °F 35% 30.30 in 10.0 mi Calm Calm - N/A   Clear
7:15 AM 43.3 °F - 19.4 °F 38% 30.30 in 10.0 mi Calm Calm - N/A   Clear
7:35 AM 43.5 °F - 19.2 °F 38% 30.30 in 10.0 mi Calm Calm - N/A   Clear
7:55 AM 44.8 °F - 18.9 °F 36% 30.31 in 10.0 mi Calm Calm - N/A   Clear
8:15 AM 45.3 °F - 19.0 °F 35% 30.31 in 10.0 mi Calm Calm - N/A   Clear
8:35 AM 43.7 °F - 20.3 °F 39% 30.31 in 10.0 mi Calm Calm - N/A   Clear
8:55 AM 45.0 °F - 21.2 °F 39% 30.33 in 10.0 mi Calm Calm - N/A   Clear
9:15 AM 45.1 °F - 22.6 °F 41% 30.33 in 10.0 mi Calm Calm - N/A   Clear
9:35 AM 46.8 °F - 22.1 °F 38% 30.33 in 10.0 mi Calm Calm - N/A   Clear
9:55 AM 47.8 °F - 25.0 °F 41% 30.33 in 10.0 mi Calm Calm - N/A   Clear
10:15 AM 49.3 °F - 24.1 °F 37% 30.33 in 10.0 mi Calm Calm - N/A   Clear
10:35 AM 51.1 °F - 23.9 °F 35% 30.33 in 10.0 mi SE 3.5 mph - N/A   Clear
10:55 AM 52.0 °F - 22.8 °F 32% 30.32 in 10.0 mi Calm Calm - N/A   Clear
11:15 AM 53.1 °F - 25.0 °F 34% 30.32 in 10.0 mi East 3.5 mph - N/A   Clear
11:35 AM 54.9 °F - 24.4 °F 31% 30.32 in 10.0 mi ENE 4.6 mph - N/A   Clear
11:55 AM 55.8 °F - 23.7 °F 29% 30.32 in 10.0 mi Calm Calm - N/A   Clear
12:15 PM 56.8 °F - 24.4 °F 29% 30.30 in 10.0 mi East 4.6 mph - N/A   Clear
12:35 PM 57.9 °F - 23.2 °F 26% 30.29 in 10.0 mi ENE 3.5 mph - N/A   Clear
12:55 PM 58.6 °F - 22.3 °F 25% 30.29 in 10.0 mi ENE 4.6 mph - N/A   Clear
1:15 PM 59.2 °F - 22.3 °F 24% 30.28 in 10.0 mi ENE 5.8 mph - N/A   Clear
1:35 PM 59.9 °F - 20.5 °F 22% 30.27 in 10.0 mi East 5.8 mph - N/A   Clear
1:55 PM 60.8 °F - 20.3 °F 21% 30.26 in 10.0 mi ESE 6.9 mph - N/A   Clear
2:15 PM 61.5 °F - 21.2 °F 21% 30.26 in 10.0 mi ENE 4.6 mph - N/A   Clear
2:35 PM 61.9 °F - 20.1 °F 20% 30.25 in 10.0 mi East 3.5 mph - N/A   Clear
2:55 PM 62.6 °F - 21.6 °F 21% 30.25 in 10.0 mi Calm Calm - N/A   Clear
3:15 PM 63.3 °F - 23.0 °F 21% 30.25 in 10.0 mi ESE 4.6 mph - N/A   Clear
3:35 PM 63.1 °F - 23.9 °F 22% 30.24 in 10.0 mi ESE 8.1 mph - N/A   Clear
3:55 PM 62.8 °F - 24.6 °F 23% 30.24 in 10.0 mi SSE 4.6 mph - N/A   Clear
4:15 PM 62.6 °F - 25.9 °F 25% 30.24 in 10.0 mi SSE 9.2 mph - N/A   Clear
4:35 PM 63.0 °F - 26.4 °F 25% 30.24 in 10.0 mi South 5.8 mph - N/A   Clear
4:55 PM 62.6 °F - 25.5 °F 24% 30.23 in 10.0 mi South 5.8 mph - N/A   Clear
5:15 PM 62.1 °F - 24.8 °F 24% 30.23 in 10.0 mi South 9.2 mph - N/A   Clear
5:35 PM 61.7 °F - 25.2 °F 25% 30.23 in 10.0 mi SSW 9.2 mph - N/A   Clear
5:55 PM 60.8 °F - 24.8 °F 25% 30.24 in 10.0 mi SSW 8.1 mph - N/A   Clear
6:15 PM 59.4 °F - 24.4 °F 26% 30.24 in 10.0 mi SSW 6.9 mph - N/A   Clear
6:35 PM 58.6 °F - 24.6 °F 27% 30.24 in 10.0 mi SSW 6.9 mph - N/A   Clear
6:55 PM 57.4 °F - 25.2 °F 29% 30.24 in 10.0 mi SW 6.9 mph - N/A   Clear
7:15 PM 55.4 °F - 26.1 °F 32% 30.25 in 10.0 mi SW 8.1 mph - N/A   Clear
7:35 PM 55.4 °F - 25.7 °F 32% 30.25 in 10.0 mi SSW 6.9 mph - N/A   Clear
7:55 PM 55.8 °F - 25.5 °F 31% 30.25 in 10.0 mi SW 9.2 mph - N/A   Clear
8:15 PM 56.1 °F - 22.5 °F 27% 30.25 in 10.0 mi SSW 10.4 mph - N/A   Clear
8:35 PM 55.9 °F - 22.8 °F 28% 30.25 in 10.0 mi SSW 9.2 mph - N/A   Clear
8:55 PM 55.8 °F - 22.5 °F 28% 30.25 in 10.0 mi SSW 9.2 mph - N/A   Clear
9:15 PM 55.2 °F - 22.6 °F 28% 30.26 in 10.0 mi SW 8.1 mph - N/A   Clear
9:35 PM 56.7 °F - 21.2 °F 25% 30.26 in 10.0 mi WSW 8.1 mph - N/A   Clear
9:55 PM 57.6 °F - 20.3 °F 24% 30.27 in 10.0 mi SSE 3.5 mph - N/A   Clear
10:15 PM 54.7 °F - 21.2 °F 27% 30.27 in 10.0 mi SSW 4.6 mph - N/A   Clear
10:35 PM 55.4 °F - 20.8 °F 26% 30.27 in 10.0 mi SW 4.6 mph - N/A   Clear
10:55 PM 54.9 °F - 20.3 °F 26% 30.27 in 10.0 mi WNW 3.5 mph - N/A   Clear
11:15 PM 54.0 °F - 20.3 °F 27% 30.27 in 10.0 mi Calm Calm - N/A   Clear
11:35 PM 55.8 °F - 20.1 °F 25% 30.27 in 10.0 mi Calm Calm - N/A   Clear
11:55 PM 55.6 °F - 22.5 °F 28% 30.27 in 10.0 mi Calm Calm - N/A   Clear